Time;durP1;ratioP1;P1;durP2;ratioP2;P2;SDS_P1;SDS_P2;PMS_P1;PMS_P2;Temp;Humidity;BMP_temperature;BMP_pressure;BME280_temperature;BME280_humidity;BME280_pressure;Samples;Min_cycle;Max_cycle;Signal;HPM_P1;HPM_P2
2022/03/05 00:00:38;;;;;;;2.97;2.73;;;18.40;36.60;;;;;;4924486;28;20560;-58
2022/03/05 00:03:04;;;;;;;3.30;2.63;;;18.30;36.50;;;;;;4925521;28;20427;-57
2022/03/05 00:05:30;;;;;;;2.87;2.67;;;18.40;36.50;;;;;;4926490;28;20251;-57
2022/03/05 00:07:56;;;;;;;2.60;2.50;;;18.30;36.40;;;;;;4928363;28;20471;-57
2022/03/05 00:10:21;;;;;;;2.70;2.57;;;18.30;36.40;;;;;;4924643;28;20230;-57
2022/03/05 00:12:48;;;;;;;2.87;2.67;;;18.30;36.40;;;;;;4923177;28;20231;-57
2022/03/05 00:15:14;;;;;;;3.40;2.87;;;18.30;36.50;;;;;;4927285;28;20329;-57
2022/03/05 00:17:39;;;;;;;3.00;2.80;;;18.30;36.30;;;;;;4929024;29;20533;-58
2022/03/05 00:20:06;;;;;;;2.93;2.73;;;18.30;36.50;;;;;;4924827;28;20335;-57
2022/03/05 00:22:32;;;;;;;3.70;3.40;;;18.30;36.50;;;;;;4924243;28;20645;-57
2022/03/05 00:24:58;;;;;;;2.97;2.77;;;18.30;36.40;;;;;;4924841;28;20447;-57
2022/03/05 00:27:23;;;;;;;3.50;2.87;;;18.30;36.40;;;;;;4931812;28;20274;-57
2022/03/05 00:29:50;;;;;;;3.03;2.77;;;18.30;36.30;;;;;;4925041;28;20229;-58
2022/03/05 00:32:15;;;;;;;3.07;2.87;;;18.30;37.20;;;;;;4921674;28;20731;-58
2022/03/05 00:34:41;;;;;;;2.80;2.60;;;18.40;36.50;;;;;;4937528;28;20427;-58
2022/03/05 00:37:08;;;;;;;3.80;3.50;;;18.30;36.40;;;;;;4923375;28;20230;-58
2022/03/05 00:39:34;;;;;;;3.00;2.80;;;18.30;36.30;;;;;;4921470;28;20275;-58
2022/03/05 00:41:59;;;;;;;3.67;3.37;;;18.30;36.30;;;;;;4922836;28;21262;-57
2022/03/05 00:44:25;;;;;;;3.50;3.30;;;18.30;36.40;;;;;;4921587;28;20709;-57
2022/03/05 00:46:50;;;;;;;3.30;3.00;;;18.30;36.30;;;;;;4924544;28;20229;-57
2022/03/05 00:49:16;;;;;;;3.13;2.93;;;18.30;36.30;;;;;;4924928;28;20227;-57
2022/03/05 00:51:42;;;;;;;3.23;3.03;;;18.30;36.30;;;;;;4926894;28;20222;-58
2022/03/05 00:54:08;;;;;;;3.23;2.93;;;18.30;36.30;;;;;;4921304;28;20279;-58
2022/03/05 00:56:34;;;;;;;3.07;2.77;;;18.30;36.30;;;;;;4920756;28;20577;-57
2022/03/05 00:58:59;;;;;;;3.27;3.07;;;18.30;36.30;;;;;;4921732;28;20464;-58
2022/03/05 01:01:25;;;;;;;3.67;3.37;;;18.30;36.30;;;;;;4920721;28;20230;-57
2022/03/05 01:03:50;;;;;;;2.97;2.77;;;18.30;36.30;;;;;;4923609;28;20222;-58
2022/03/05 01:06:16;;;;;;;3.13;2.90;;;18.30;36.30;;;;;;4925203;29;20226;-57
2022/03/05 01:08:42;;;;;;;3.07;2.60;;;18.30;36.30;;;;;;4926962;28;20231;-57
2022/03/05 01:11:08;;;;;;;2.83;2.63;;;18.30;36.30;;;;;;4922471;28;20251;-58
2022/03/05 01:13:35;;;;;;;3.40;3.10;;;18.30;36.30;;;;;;4925211;28;20222;-57
2022/03/05 01:16:01;;;;;;;3.03;2.83;;;18.30;36.30;;;;;;4924430;28;20535;-58
2022/03/05 01:18:26;;;;;;;3.23;3.03;;;18.30;36.20;;;;;;4926663;28;20562;-57
2022/03/05 01:20:52;;;;;;;3.13;2.93;;;18.30;36.20;;;;;;4923323;28;20215;-57
2022/03/05 01:23:18;;;;;;;3.30;3.00;;;18.30;36.30;;;;;;4926758;28;20298;-57
2022/03/05 01:25:43;;;;;;;3.70;3.50;;;18.30;36.20;;;;;;4919025;28;20314;-57
2022/03/05 01:28:09;;;;;;;3.40;3.20;;;18.30;36.20;;;;;;4923533;28;20738;-57
2022/03/05 01:30:35;;;;;;;2.97;2.77;;;18.30;36.20;;;;;;4922127;28;20310;-57
2022/03/05 01:33:00;;;;;;;2.67;2.47;;;18.30;36.20;;;;;;4924412;28;20314;-58
2022/03/05 01:35:26;;;;;;;3.33;3.13;;;18.30;36.20;;;;;;4924302;28;20242;-58
2022/03/05 01:37:52;;;;;;;3.47;3.27;;;18.30;36.20;;;;;;4919789;28;20683;-58
2022/03/05 01:40:18;;;;;;;3.80;3.50;;;18.30;36.20;;;;;;4926579;28;20230;-58
2022/03/05 01:42:43;;;;;;;3.50;3.20;;;18.30;36.20;;;;;;4924976;28;20214;-57
2022/03/05 01:45:12;;;;;;;3.87;3.53;;;18.30;36.20;;;;;;4924731;28;20424;-58
2022/03/05 01:47:39;;;;;;;3.13;2.93;;;18.30;36.20;;;;;;4926776;28;20278;-58
2022/03/05 01:50:05;;;;;;;3.83;3.53;;;18.30;36.20;;;;;;4925691;28;20452;-57
2022/03/05 01:52:31;;;;;;;3.60;3.33;;;18.30;36.10;;;;;;4921873;28;20484;-57
2022/03/05 01:54:56;;;;;;;3.40;3.20;;;18.30;36.10;;;;;;4921874;28;20452;-57
2022/03/05 01:57:22;;;;;;;2.90;2.70;;;18.30;36.20;;;;;;4923716;28;20227;-57
2022/03/05 01:59:48;;;;;;;3.60;3.10;;;18.30;36.10;;;;;;4924181;28;20211;-57
2022/03/05 02:02:14;;;;;;;3.60;3.40;;;18.30;37.00;;;;;;4926871;28;21449;-58
2022/03/05 02:04:40;;;;;;;3.70;3.40;;;18.30;36.10;;;;;;4925204;28;20976;-58
2022/03/05 02:07:05;;;;;;;4.07;3.80;;;18.30;36.20;;;;;;4925002;28;21055;-58
2022/03/05 02:09:31;;;;;;;3.23;3.03;;;18.30;36.10;;;;;;4926392;28;20218;-58
2022/03/05 02:11:57;;;;;;;4.10;3.80;;;18.30;36.10;;;;;;4923057;28;20656;-58
2022/03/05 02:14:22;;;;;;;4.07;3.73;;;18.30;36.20;;;;;;4923060;28;20223;-58
2022/03/05 02:16:48;;;;;;;4.00;3.70;;;18.30;36.10;;;;;;4927243;28;20269;-57
2022/03/05 02:19:14;;;;;;;4.00;3.60;;;18.30;36.10;;;;;;4923785;28;20569;-58
2022/03/05 02:21:39;;;;;;;4.00;3.70;;;18.30;36.10;;;;;;4921398;28;20301;-58
2022/03/05 02:24:06;;;;;;;3.87;3.60;;;18.30;36.20;;;;;;4921008;28;20712;-57
2022/03/05 02:26:31;;;;;;;3.83;3.53;;;18.30;36.10;;;;;;4923973;28;20263;-57
2022/03/05 02:28:57;;;;;;;4.03;3.70;;;18.30;36.10;;;;;;4926126;28;20471;-57
2022/03/05 02:31:23;;;;;;;4.30;4.00;;;18.30;36.10;;;;;;4925137;28;20227;-57
2022/03/05 02:33:52;;;;;;;3.97;3.60;;;18.30;36.10;;;;;;4928535;28;20243;-57
2022/03/05 02:36:20;;;;;;;3.13;2.93;;;18.30;36.10;;;;;;4922926;28;20444;-57
2022/03/05 02:38:45;;;;;;;3.53;3.33;;;18.30;36.10;;;;;;4924936;28;20913;-57
2022/03/05 02:41:11;;;;;;;3.90;3.60;;;18.30;36.10;;;;;;4918301;28;20477;-57
2022/03/05 02:43:36;;;;;;;4.10;3.80;;;18.30;36.10;;;;;;4924780;28;20218;-58
2022/03/05 02:46:02;;;;;;;4.70;3.30;;;18.30;36.10;;;;;;4926857;28;20242;-57
2022/03/05 02:48:28;;;;;;;4.53;4.20;;;18.30;36.10;;;;;;4917507;28;20657;-57
2022/03/05 02:50:54;;;;;;;4.90;4.40;;;18.20;36.10;;;;;;4920241;28;20443;-57
2022/03/05 02:53:20;;;;;;;4.77;4.37;;;18.30;36.10;;;;;;4918342;28;20226;-57
2022/03/05 02:55:46;;;;;;;4.40;4.00;;;18.30;36.10;;;;;;4921900;28;20445;-57
2022/03/05 02:58:12;;;;;;;3.77;3.47;;;18.30;36.10;;;;;;4921583;28;20315;-57
2022/03/05 03:00:38;;;;;;;4.27;3.87;;;18.30;36.10;;;;;;4923566;28;20423;-58
2022/03/05 03:03:04;;;;;;;3.13;2.93;;;18.30;36.10;;;;;;4928435;28;20238;-57
2022/03/05 03:05:29;;;;;;;4.40;4.00;;;18.30;36.10;;;;;;4921097;28;20818;-57
2022/03/05 03:07:55;;;;;;;4.43;4.07;;;18.30;36.10;;;;;;4920417;28;20618;-57
2022/03/05 03:10:21;;;;;;;5.50;5.10;;;18.30;36.10;;;;;;4923164;28;20676;-57
2022/03/05 03:12:46;;;;;;;4.30;4.00;;;18.30;36.10;;;;;;4921436;28;20278;-57
2022/03/05 03:15:15;;;;;;;3.20;3.00;;;18.20;36.00;;;;;;4925054;28;20277;-58
2022/03/05 03:17:46;;;;;;;4.70;4.40;;;18.20;36.00;;;;;;4934651;28;20680;-57
2022/03/05 03:20:14;;;;;;;5.90;4.00;;;18.30;36.00;;;;;;4928060;28;20428;-58
2022/03/05 03:22:40;;;;;;;4.97;4.57;;;18.20;36.00;;;;;;4922520;28;20945;-58
2022/03/05 03:25:07;;;;;;;5.10;4.67;;;18.30;36.10;;;;;;4926959;28;20454;-57
2022/03/05 03:27:34;;;;;;;4.93;4.60;;;18.20;36.00;;;;;;4923402;28;20989;-57
2022/03/05 03:29:59;;;;;;;4.60;4.20;;;18.20;36.00;;;;;;4925311;28;20956;-57
2022/03/05 03:32:25;;;;;;;5.40;5.00;;;18.20;36.00;;;;;;4926713;28;20471;-58
2022/03/05 03:34:51;;;;;;;3.93;3.63;;;18.20;36.10;;;;;;4923998;28;20674;-57
2022/03/05 03:37:16;;;;;;;5.40;4.30;;;18.30;36.00;;;;;;4928060;28;20223;-57
2022/03/05 03:39:42;;;;;;;4.93;4.47;;;18.20;36.00;;;;;;4930322;28;20230;-57
2022/03/05 03:42:08;;;;;;;4.33;4.03;;;18.20;36.00;;;;;;4925336;28;20230;-58
2022/03/05 03:44:33;;;;;;;4.40;4.10;;;18.20;36.00;;;;;;4925372;28;20233;-57
2022/03/05 03:46:59;;;;;;;4.53;4.20;;;18.20;36.00;;;;;;4926351;28;20258;-58
2022/03/05 03:49:25;;;;;;;4.20;3.90;;;18.20;35.90;;;;;;4923374;28;20222;-57
2022/03/05 03:51:50;;;;;;;4.47;4.17;;;18.20;36.70;;;;;;4926214;28;20615;-57
2022/03/05 03:54:16;;;;;;;4.10;3.80;;;18.20;36.00;;;;;;4934404;28;20225;-58
2022/03/05 03:56:42;;;;;;;5.00;4.37;;;18.20;36.00;;;;;;4924075;28;20242;-57
2022/03/05 03:59:08;;;;;;;4.90;4.50;;;18.20;36.00;;;;;;4921685;28;20227;-58
2022/03/05 04:01:34;;;;;;;4.57;4.17;;;18.20;35.90;;;;;;4928671;28;20222;-57
2022/03/05 04:04:00;;;;;;;4.83;4.43;;;18.20;35.90;;;;;;4925242;28;20637;-57
2022/03/05 04:08:41;;;;;;;4.30;3.93;;;18.20;35.90;;;;;;4927554;28;20294;-58
2022/03/05 04:09:11;;;;;;;4.57;4.17;;;18.20;35.90;;;;;;4918996;28;20450;-57
2022/03/05 04:11:36;;;;;;;4.90;4.50;;;18.20;36.00;;;;;;4924876;28;20462;-58
2022/03/05 04:14:02;;;;;;;4.63;4.33;;;18.20;36.00;;;;;;4922748;29;20582;-57
2022/03/05 04:16:28;;;;;;;4.90;4.50;;;18.20;36.00;;;;;;4923391;28;20691;-57
2022/03/05 04:18:53;;;;;;;4.50;4.10;;;18.20;36.00;;;;;;4926238;28;20266;-57
2022/03/05 04:21:19;;;;;;;3.93;3.63;;;18.20;36.00;;;;;;4928146;28;20235;-57
2022/03/05 04:23:45;;;;;;;4.67;4.27;;;18.20;36.00;;;;;;4929274;28;20558;-57
2022/03/05 04:26:10;;;;;;;5.00;4.60;;;18.20;36.70;;;;;;4931273;29;20989;-57
2022/03/05 04:28:36;;;;;;;4.87;4.43;;;18.20;36.00;;;;;;4925321;28;20241;-57
2022/03/05 04:31:01;;;;;;;5.10;4.60;;;18.20;36.00;;;;;;4925722;28;20227;-57
2022/03/05 04:33:28;;;;;;;5.17;4.70;;;18.20;35.90;;;;;;4922272;28;20230;-58
2022/03/05 04:35:54;;;;;;;5.77;4.67;;;18.20;35.90;;;;;;4921064;28;20235;-57
2022/03/05 04:38:19;;;;;;;5.37;4.90;;;18.20;36.00;;;;;;4931648;28;20430;-57
2022/03/05 04:40:45;;;;;;;5.40;4.90;;;18.20;35.90;;;;;;4923111;28;20233;-57
2022/03/05 04:43:11;;;;;;;4.30;4.00;;;18.20;35.90;;;;;;4925758;28;20255;-57
2022/03/05 04:45:36;;;;;;;4.67;4.37;;;18.20;35.90;;;;;;4924456;28;20237;-59
2022/03/05 04:48:02;;;;;;;4.73;4.33;;;18.20;36.00;;;;;;4928662;28;20234;-57
2022/03/05 04:50:28;;;;;;;5.00;4.70;;;18.20;36.00;;;;;;4921575;28;20230;-57
2022/03/05 04:52:53;;;;;;;4.57;4.17;;;18.20;35.90;;;;;;4923843;28;20719;-57
2022/03/05 04:55:19;;;;;;;4.60;4.20;;;18.20;35.90;;;;;;4924069;28;20318;-57
2022/03/05 04:57:44;;;;;;;4.50;4.00;;;18.20;36.00;;;;;;4921707;28;20649;-57
2022/03/05 05:00:11;;;;;;;4.30;4.00;;;18.20;36.00;;;;;;4919793;28;20748;-58
2022/03/05 05:02:37;;;;;;;4.57;4.17;;;18.20;35.90;;;;;;4926280;28;20313;-58
2022/03/05 05:05:03;;;;;;;5.40;4.17;;;18.20;36.00;;;;;;4925647;28;21011;-57
2022/03/05 05:07:28;;;;;;;4.77;4.27;;;18.20;35.90;;;;;;4927464;28;20246;-57
2022/03/05 05:09:54;;;;;;;5.57;5.07;;;18.20;36.00;;;;;;4929241;28;20951;-57
2022/03/05 05:12:20;;;;;;;4.13;3.83;;;18.20;35.80;;;;;;4921198;28;20672;-57
2022/03/05 05:14:45;;;;;;;4.63;4.23;;;18.20;35.80;;;;;;4926677;28;20246;-57
2022/03/05 05:17:11;;;;;;;5.17;4.67;;;18.20;35.80;;;;;;4925108;28;20247;-58
2022/03/05 05:19:36;;;;;;;5.40;5.00;;;18.20;35.80;;;;;;4923828;28;20234;-59
2022/03/05 05:22:04;;;;;;;5.03;4.63;;;18.20;35.70;;;;;;4926809;28;20229;-57
2022/03/05 05:24:33;;;;;;;4.80;4.40;;;18.20;35.80;;;;;;4922454;28;20289;-57
2022/03/05 05:27:00;;;;;;;4.90;4.53;;;18.20;35.80;;;;;;4929311;28;20859;-57
2022/03/05 05:29:26;;;;;;;4.60;4.30;;;18.20;35.80;;;;;;4924484;28;20451;-57
2022/03/05 05:31:52;;;;;;;4.40;4.00;;;18.20;35.80;;;;;;4922013;28;20478;-58
2022/03/05 05:34:18;;;;;;;3.93;3.60;;;18.20;35.70;;;;;;4925789;28;20494;-57
2022/03/05 05:36:44;;;;;;;4.93;4.53;;;18.20;35.70;;;;;;4922949;28;20326;-58
2022/03/05 05:39:11;;;;;;;4.50;4.10;;;18.20;35.70;;;;;;4922299;28;20227;-57
2022/03/05 05:41:37;;;;;;;4.00;3.70;;;18.20;35.70;;;;;;4921260;28;20553;-60
2022/03/05 05:44:05;;;;;;;4.97;4.43;;;18.20;35.60;;;;;;4924058;28;20513;-57
2022/03/05 05:46:30;;;;;;;4.90;4.50;;;18.20;35.60;;;;;;4924978;28;20440;-57
2022/03/05 05:48:57;;;;;;;4.87;4.40;;;18.20;35.60;;;;;;4925025;28;20481;-58
2022/03/05 05:51:25;;;;;;;5.33;4.87;;;18.30;35.70;;;;;;4922555;28;20222;-57
2022/03/05 05:53:50;;;;;;;5.10;4.70;;;18.20;35.60;;;;;;4927550;28;20446;-57
2022/03/05 05:56:16;;;;;;;4.73;4.33;;;18.30;35.60;;;;;;4923226;28;20554;-57
2022/03/05 05:58:42;;;;;;;5.17;4.67;;;18.30;35.70;;;;;;4920960;28;20673;-60
2022/03/05 06:01:08;;;;;;;4.50;4.13;;;18.30;35.60;;;;;;4927095;28;20230;-60
2022/03/05 06:03:33;;;;;;;4.97;4.57;;;18.30;35.60;;;;;;4924099;28;20222;-59
2022/03/05 06:06:00;;;;;;;4.50;4.10;;;18.30;35.70;;;;;;4922994;29;20239;-58
2022/03/05 06:08:26;;;;;;;4.50;4.10;;;18.30;35.60;;;;;;4924397;28;20269;-58
2022/03/05 06:10:52;;;;;;;4.10;3.80;;;18.30;35.60;;;;;;4923498;28;20808;-58
2022/03/05 06:13:18;;;;;;;4.60;4.20;;;18.30;35.60;;;;;;4924445;28;20471;-58
2022/03/05 06:15:44;;;;;;;5.00;4.40;;;18.30;36.30;;;;;;4919860;28;20439;-56
2022/03/05 06:18:10;;;;;;;4.87;4.50;;;18.30;35.50;;;;;;4923744;28;20449;-57
2022/03/05 06:20:36;;;;;;;4.47;4.17;;;18.30;35.50;;;;;;4926405;28;20305;-57
2022/03/05 06:23:01;;;;;;;4.33;4.03;;;18.30;35.50;;;;;;4921625;28;20524;-58
2022/03/05 06:25:27;;;;;;;4.73;4.30;;;18.30;35.40;;;;;;4920495;28;20735;-58
2022/03/05 06:27:52;;;;;;;4.20;3.90;;;18.30;35.40;;;;;;4918395;28;20222;-58
2022/03/05 06:30:18;;;;;;;4.30;4.00;;;18.30;35.40;;;;;;4923092;28;20221;-58
2022/03/05 06:32:43;;;;;;;4.20;3.90;;;18.30;35.40;;;;;;4921758;28;20297;-58
2022/03/05 06:35:09;;;;;;;4.13;3.70;;;18.30;35.40;;;;;;4925987;28;20223;-58
2022/03/05 06:37:35;;;;;;;5.00;4.57;;;18.30;35.40;;;;;;4919531;28;20225;-57
2022/03/05 06:40:02;;;;;;;4.50;4.20;;;18.30;35.30;;;;;;4922322;28;20551;-58
2022/03/05 06:42:28;;;;;;;4.33;3.93;;;18.30;35.30;;;;;;4920891;28;20282;-57
2022/03/05 06:44:53;;;;;;;5.10;4.63;;;18.30;35.30;;;;;;4917854;28;20461;-58
2022/03/05 06:47:19;;;;;;;4.47;4.07;;;18.30;35.40;;;;;;4926071;28;20262;-58
2022/03/05 06:49:44;;;;;;;4.43;4.07;;;18.30;35.20;;;;;;4928545;28;20226;-58
2022/03/05 06:52:10;;;;;;;4.07;3.73;;;18.30;35.20;;;;;;4928253;28;20593;-58
2022/03/05 06:54:36;;;;;;;4.53;4.23;;;18.30;35.20;;;;;;4924969;28;20302;-58
2022/03/05 06:57:03;;;;;;;4.70;4.30;;;18.30;35.20;;;;;;4926227;28;20247;-58
2022/03/05 06:59:29;;;;;;;4.33;3.93;;;18.30;35.20;;;;;;4923211;28;20442;-58
2022/03/05 07:01:55;;;;;;;3.90;3.60;;;18.30;35.20;;;;;;4928326;28;20473;-58
2022/03/05 07:04:20;;;;;;;4.90;4.50;;;18.30;35.20;;;;;;4925557;28;20234;-58
2022/03/05 07:06:46;;;;;;;4.20;3.87;;;18.30;35.20;;;;;;4929028;28;20222;-57
2022/03/05 07:09:12;;;;;;;4.80;4.40;;;18.30;35.10;;;;;;4924782;28;20691;-58
2022/03/05 07:11:38;;;;;;;5.20;4.80;;;18.30;35.10;;;;;;4927473;28;20265;-59
2022/03/05 07:14:03;;;;;;;5.23;4.83;;;18.30;35.00;;;;;;4925327;28;20230;-58
2022/03/05 07:16:29;;;;;;;4.20;3.90;;;18.30;35.00;;;;;;4923908;28;20262;-58
2022/03/05 07:18:54;;;;;;;5.03;4.63;;;18.30;34.90;;;;;;4926424;28;20472;-57
2022/03/05 07:21:20;;;;;;;4.80;3.77;;;18.30;34.90;;;;;;4925122;28;20254;-58
2022/03/05 07:23:46;;;;;;;4.97;4.57;;;18.30;34.90;;;;;;4921823;28;20279;-58
2022/03/05 07:26:11;;;;;;;6.90;5.23;;;18.30;34.90;;;;;;4926117;28;20744;-58
2022/03/05 07:28:37;;;;;;;5.53;4.90;;;18.30;34.90;;;;;;4924928;28;20222;-58
2022/03/05 07:31:03;;;;;;;4.73;4.33;;;18.30;34.90;;;;;;4921814;28;20239;-58
2022/03/05 07:33:28;;;;;;;5.20;4.23;;;18.30;34.80;;;;;;4924051;28;20235;-57
2022/03/05 07:35:54;;;;;;;5.27;4.53;;;18.30;34.80;;;;;;4922852;28;20233;-57
2022/03/05 07:38:20;;;;;;;4.90;4.50;;;18.30;34.80;;;;;;4924844;28;20242;-57
2022/03/05 07:40:46;;;;;;;4.67;4.27;;;18.30;34.80;;;;;;4924478;28;20465;-57
2022/03/05 07:43:12;;;;;;;6.60;4.40;;;18.30;34.70;;;;;;4926486;28;20277;-57
2022/03/05 07:45:38;;;;;;;5.37;4.90;;;18.30;34.70;;;;;;4920238;28;20243;-58
2022/03/05 07:48:04;;;;;;;4.80;4.40;;;18.30;34.70;;;;;;4924004;28;20448;-58
2022/03/05 07:50:30;;;;;;;14.27;4.90;;;18.30;34.70;;;;;;4925071;28;20456;-58
2022/03/05 07:52:56;;;;;;;5.33;4.93;;;18.30;34.70;;;;;;4922941;28;20425;-58
2022/03/05 07:55:22;;;;;;;4.17;3.80;;;18.30;34.70;;;;;;4921558;28;20472;-57
2022/03/05 07:57:47;;;;;;;4.60;4.20;;;18.30;34.70;;;;;;4926478;28;20222;-57
2022/03/05 08:00:13;;;;;;;5.47;3.70;;;18.30;34.60;;;;;;4923736;28;20242;-58
2022/03/05 08:02:39;;;;;;;6.13;4.27;;;18.30;34.60;;;;;;4924605;28;20318;-58
2022/03/05 08:05:05;;;;;;;5.10;4.30;;;18.30;34.60;;;;;;4932451;28;20323;-58
2022/03/05 08:07:31;;;;;;;4.90;4.50;;;18.30;34.50;;;;;;4925185;28;20234;-58
2022/03/05 08:09:57;;;;;;;5.93;4.80;;;18.40;34.60;;;;;;4924180;28;20435;-58
2022/03/05 08:12:22;;;;;;;5.10;4.60;;;18.40;34.60;;;;;;4924367;28;20818;-58
2022/03/05 08:14:48;;;;;;;5.97;4.80;;;18.40;34.50;;;;;;4925675;28;20254;-58
2022/03/05 08:17:14;;;;;;;4.60;4.20;;;18.40;34.40;;;;;;4922142;28;20246;-58
2022/03/05 08:19:40;;;;;;;5.00;4.60;;;18.40;34.40;;;;;;4926928;28;20215;-58
2022/03/05 08:22:06;;;;;;;4.83;4.43;;;18.40;34.30;;;;;;4930028;28;20213;-58
2022/03/05 08:24:32;;;;;;;5.07;4.67;;;18.40;34.30;;;;;;4921213;28;20461;-58
2022/03/05 08:26:57;;;;;;;4.07;3.77;;;18.40;34.30;;;;;;4924417;28;20446;-58
2022/03/05 08:29:24;;;;;;;4.37;3.97;;;18.40;34.30;;;;;;4922734;28;20309;-57
2022/03/05 08:31:50;;;;;;;4.90;4.40;;;18.40;34.30;;;;;;4920022;28;20227;-58
2022/03/05 08:34:15;;;;;;;5.23;4.73;;;18.40;34.30;;;;;;4923073;28;20444;-58
2022/03/05 08:36:41;;;;;;;6.47;4.60;;;18.40;34.30;;;;;;4924131;28;20780;-59
2022/03/05 08:39:07;;;;;;;5.13;4.43;;;18.40;34.30;;;;;;4926060;28;20293;-60
2022/03/05 08:41:33;;;;;;;7.00;4.47;;;18.40;34.30;;;;;;4922547;28;20578;-58
2022/03/05 08:43:59;;;;;;;4.70;4.23;;;18.40;34.20;;;;;;4926197;28;20425;-61
2022/03/05 08:46:25;;;;;;;6.90;4.63;;;18.40;34.20;;;;;;4923764;28;20244;-60
2022/03/05 08:49:22;;;;;;;6.43;4.40;;;18.40;34.20;;;;;;4922846;28;20227;-58
2022/03/05 08:51:48;;;;;;;4.97;4.23;;;18.40;34.20;;;;;;4915506;28;20222;-56
2022/03/05 08:54:17;;;;;;;4.30;3.90;;;18.40;34.20;;;;;;4921438;28;20451;-57
2022/03/05 08:57:00;;;;;;;7.33;5.03;;;18.40;34.20;;;;;;4921530;28;21307;-57
2022/03/05 08:59:26;;;;;;;7.90;4.67;;;18.40;34.20;;;;;;4923821;28;20460;-56
2022/03/05 09:01:52;;;;;;;8.87;4.67;;;18.50;34.20;;;;;;4920616;28;20458;-57
2022/03/05 09:04:17;;;;;;;14.00;5.23;;;18.50;34.30;;;;;;4928346;28;20210;-55
2022/03/05 09:09:45;;;;;;;9.37;4.57;;;18.50;34.40;;;;;;4916979;28;20218;-54
2022/03/05 09:12:11;;;;;;;7.97;4.43;;;18.50;34.40;;;;;;4923242;28;20447;-54
2022/03/05 09:14:42;;;;;;;7.50;4.70;;;18.50;34.40;;;;;;4927106;28;20952;-55
2022/03/05 09:17:28;;;;;;;6.70;5.30;;;18.50;34.50;;;;;;4924179;28;20237;-54
2022/03/05 09:20:46;;;;;;;7.03;4.33;;;18.40;34.30;;;;;;4924334;28;20483;-55
2022/03/05 09:23:38;;;;;;;4.70;4.20;;;18.40;34.40;;;;;;4884030;28;20463;-54
2022/03/05 09:26:29;;;;;;;6.07;4.40;;;18.40;34.50;;;;;;4930991;28;20435;-54
2022/03/05 09:29:07;;;;;;;5.13;4.20;;;18.40;34.50;;;;;;4895457;29;20429;-54
2022/03/05 09:32:01;;;;;;;;;;;;;;;;;;;;;
2022/03/05 09:34:37;;;;;;;5.97;4.10;;;18.40;34.70;;;;;;5140843;27;20556;-56
2022/03/05 09:37:43;;;;;;;5.07;3.80;;;18.40;34.60;;;;;;5133669;27;20471;-56
2022/03/05 09:40:28;;;;;;;6.60;4.13;;;18.40;34.60;;;;;;5137019;27;20419;-56
2022/03/05 09:46:28;;;;;;;8.67;4.63;;;18.40;34.60;;;;;;5140361;27;20547;-56
2022/03/05 09:49:36;;;;;;;;;;;;;;;;;;;;;
2022/03/05 09:52:17;;;;;;;4.57;4.17;;;18.40;34.60;;;;;;5118389;27;20411;-54
2022/03/05 09:57:33;;;;;;;8.70;5.20;;;18.40;34.60;;;;;;5119040;27;20486;-57
2022/03/05 10:00:08;;;;;;;7.77;4.10;;;18.40;34.60;;;;;;5145875;27;21023;-60
2022/03/05 10:03:22;;;;;;;;;;;;;;;;;;;;;
2022/03/05 10:05:48;;;;;;;5.00;4.60;;;18.40;34.60;;;;;;5119246;27;20435;-56
2022/03/05 10:08:17;;;;;;;4.87;4.30;;;18.40;34.70;;;;;;5135757;27;20529;-56
2022/03/05 10:10:50;;;;;;;4.83;4.10;;;18.40;34.60;;;;;;5135629;27;20228;-56
2022/03/05 10:13:33;;;;;;;4.87;4.47;;;18.50;34.70;;;;;;5135211;27;20446;-56
2022/03/05 10:16:33;;;;;;;4.77;4.47;;;18.40;34.50;;;;;;5138716;27;20439;-56
2022/03/05 10:19:16;;;;;;;4.30;3.90;;;18.40;34.50;;;;;;5135112;27;20903;-57
2022/03/05 10:21:58;;;;;;;7.23;4.23;;;18.40;34.60;;;;;;5132628;27;20458;-56
2022/03/05 10:24:34;;;;;;;3.90;3.60;;;18.40;34.60;;;;;;5133825;27;20635;-56
2022/03/05 10:27:00;;;;;;;4.60;4.20;;;18.40;34.60;;;;;;5133817;27;20439;-56
2022/03/05 10:29:34;;;;;;;5.73;3.93;;;18.50;35.40;;;;;;5142142;27;20833;-56
2022/03/05 10:32:01;;;;;;;6.60;4.73;;;18.50;34.70;;;;;;5136659;27;20447;-56
2022/03/05 10:34:50;;;;;;;4.87;4.37;;;18.40;34.70;;;;;;5134324;27;20430;-57
2022/03/05 10:37:17;;;;;;;4.33;4.00;;;18.40;34.70;;;;;;5136446;27;20422;-56
2022/03/05 10:39:43;;;;;;;5.13;4.70;;;18.50;34.70;;;;;;5137666;27;20910;-56
2022/03/05 10:42:23;;;;;;;5.70;4.33;;;18.40;34.70;;;;;;5123002;27;20417;-57
2022/03/05 10:45:07;;;;;;;4.10;3.80;;;18.40;34.70;;;;;;5126487;27;20478;-54
2022/03/05 10:47:41;;;;;;;4.63;3.83;;;18.40;34.70;;;;;;5121323;27;20518;-54
2022/03/05 10:50:22;;;;;;;3.50;3.20;;;18.40;34.70;;;;;;5120042;27;20426;-55
2022/03/05 10:52:50;;;;;;;4.50;4.20;;;18.40;34.70;;;;;;5117322;27;20450;-53
2022/03/05 10:55:23;;;;;;;4.50;4.10;;;18.40;34.70;;;;;;5122276;27;20978;-54
2022/03/05 10:58:16;;;;;;;4.77;4.40;;;18.40;34.80;;;;;;5123565;27;20441;-56
2022/03/05 11:00:45;;;;;;;4.47;4.00;;;18.40;34.70;;;;;;5119353;27;20431;-56
2022/03/05 11:03:11;;;;;;;4.30;4.00;;;18.40;34.80;;;;;;5118065;27;20431;-56
2022/03/05 11:05:38;;;;;;;3.93;3.63;;;18.40;34.80;;;;;;5125309;27;20447;-56
2022/03/05 11:08:04;;;;;;;4.37;3.97;;;18.40;34.80;;;;;;5129094;27;20665;-55
2022/03/05 11:10:30;;;;;;;5.73;4.30;;;18.40;34.80;;;;;;5139116;27;20507;-59
2022/03/05 11:12:59;;;;;;;4.33;4.00;;;18.40;35.60;;;;;;5141974;27;20494;-56
2022/03/05 11:15:27;;;;;;;4.07;3.77;;;18.40;35.60;;;;;;5138721;27;20215;-57
2022/03/05 11:17:53;;;;;;;4.47;4.07;;;18.40;35.60;;;;;;5144670;27;20550;-57
2022/03/05 11:20:19;;;;;;;4.83;4.00;;;18.40;34.80;;;;;;5143031;27;20787;-56
2022/03/05 11:22:49;;;;;;;4.50;4.10;;;18.40;34.70;;;;;;5123625;27;20497;-56
2022/03/05 11:25:20;;;;;;;4.57;3.33;;;18.40;34.80;;;;;;5136496;27;20521;-56
2022/03/05 11:28:05;;;;;;;3.93;3.60;;;18.40;34.70;;;;;;5136444;27;20430;-57
2022/03/05 11:30:41;;;;;;;4.53;3.90;;;18.40;34.70;;;;;;5138825;27;20474;-56
2022/03/05 11:33:38;;;;;;;6.03;4.17;;;18.50;34.80;;;;;;5138788;27;20492;-55
2022/03/05 11:36:06;;;;;;;4.20;3.80;;;18.40;34.70;;;;;;5144587;27;20470;-56
2022/03/05 11:38:37;;;;;;;5.07;4.00;;;18.40;34.80;;;;;;5141775;27;20426;-56
2022/03/05 11:41:21;;;;;;;5.03;3.70;;;18.40;34.80;;;;;;5138521;27;20430;-56
2022/03/05 11:43:47;;;;;;;4.23;3.80;;;18.40;34.80;;;;;;5137209;27;20899;-56
2022/03/05 11:46:24;;;;;;;4.00;3.70;;;18.40;34.70;;;;;;5142922;27;21012;-56
2022/03/05 11:49:04;;;;;;;4.03;3.73;;;18.40;34.80;;;;;;5137913;27;20500;-56
2022/03/05 11:51:31;;;;;;;5.97;3.80;;;18.40;34.70;;;;;;5141128;27;20863;-56
2022/03/05 11:54:12;;;;;;;4.47;4.07;;;18.40;34.80;;;;;;5138487;27;20909;-56
2022/03/05 11:56:38;;;;;;;6.90;4.20;;;18.40;34.80;;;;;;5141621;27;20698;-57
2022/03/05 11:59:32;;;;;;;3.80;3.60;;;18.40;34.70;;;;;;5136551;27;20925;-57
2022/03/05 12:01:58;;;;;;;4.13;3.77;;;18.40;34.70;;;;;;5136788;27;20207;-57
2022/03/05 12:04:27;;;;;;;4.70;4.23;;;18.40;34.80;;;;;;5136493;27;20421;-57
2022/03/05 12:07:10;;;;;;;4.30;4.00;;;18.40;34.80;;;;;;5138191;27;20250;-57
2022/03/05 12:09:44;;;;;;;4.87;4.37;;;18.40;34.70;;;;;;5141880;27;20972;-56
2022/03/05 12:12:15;;;;;;;6.10;4.20;;;18.40;35.00;;;;;;5119935;27;20459;-55
2022/03/05 12:14:59;;;;;;;4.00;3.70;;;18.40;34.80;;;;;;5142367;27;20455;-57
2022/03/05 12:17:40;;;;;;;4.30;3.90;;;18.40;34.70;;;;;;5139313;27;20531;-56
2022/03/05 12:20:09;;;;;;;4.77;4.17;;;18.40;34.70;;;;;;5141209;27;20463;-55
2022/03/05 12:22:35;;;;;;;4.40;4.10;;;18.40;34.70;;;;;;5123559;27;20472;-55
2022/03/05 12:25:00;;;;;;;4.47;4.07;;;18.40;34.70;;;;;;5121084;27;20418;-56
2022/03/05 12:27:29;;;;;;;6.23;4.00;;;18.40;34.70;;;;;;5116626;27;20216;-56
2022/03/05 12:29:55;;;;;;;5.63;4.80;;;18.40;35.50;;;;;;5114336;27;20232;-55
2022/03/05 12:32:29;;;;;;;4.37;4.10;;;18.40;34.70;;;;;;5122652;27;20891;-56
2022/03/05 12:35:05;;;;;;;4.27;3.87;;;18.40;34.70;;;;;;5120258;27;20452;-56
2022/03/05 12:37:32;;;;;;;4.67;4.33;;;18.40;34.60;;;;;;5118393;27;20455;-56
2022/03/05 12:39:59;;;;;;;4.20;3.90;;;18.40;34.70;;;;;;5113589;27;20516;-57
2022/03/05 12:42:42;;;;;;;4.23;3.90;;;18.40;35.40;;;;;;5104470;27;20925;-56
2022/03/05 12:45:13;;;;;;;4.57;4.17;;;18.40;34.60;;;;;;5120628;27;20419;-56
2022/03/05 12:47:39;;;;;;;4.63;4.27;;;18.40;34.60;;;;;;5116586;27;20507;-57
2022/03/05 12:50:30;;;;;;;5.57;4.53;;;18.40;34.60;;;;;;5104476;27;20510;-56
2022/03/05 12:53:11;;;;;;;4.40;4.10;;;18.40;34.60;;;;;;5118651;27;20216;-56
2022/03/05 12:55:38;;;;;;;4.40;4.00;;;18.40;34.60;;;;;;5116750;27;20422;-55
2022/03/05 12:58:16;;;;;;;4.40;4.00;;;18.40;34.60;;;;;;5117324;27;20464;-56
2022/03/05 13:00:44;;;;;;;3.80;3.50;;;18.40;34.60;;;;;;5126341;27;20454;-56
2022/03/05 13:03:12;;;;;;;4.53;4.17;;;18.40;34.60;;;;;;5112708;27;20425;-55
2022/03/05 13:05:38;;;;;;;4.10;3.80;;;18.40;34.70;;;;;;5123619;27;20435;-56
2022/03/05 13:08:05;;;;;;;4.13;3.73;;;18.40;34.60;;;;;;5119640;27;20423;-56